Weather at Stanley Airport

Public forecast

Using degrees Celsius for public forecast. Weather courtesy of forecast.io.

Closest aviation weather report (METAR) to Stanley Airport

Closest report is Halifax / Stanfield International Airport, 21.9 nm (40.6 km) SE.

2024/06/15 03:00 (retrieved 19 minutes ago)

CYHZ 150300Z 19010KT 15SM SCT090 BKN110 16/11 A2990 RMK AC3AC2 SLP128 DENSITY ALT 700FT

Closest aviation forecast (TAF) to Stanley Airport

Forecast is more than 12 hours old.

Closest forecast is Halifax / CFB Shearwater Heliport, 33.1 nm (61.2 km) SSE.

2024/06/14 12:12 Ammendment (retrieved 15 hours ago)

TAF AMD TAF AMD CYAW 141708Z 1412/1424 CNL RMK END OF FLY PROGRAM NXT FCST BY 141800Z